sensor_id;sensor_type;location;lat;lon;timestamp;P1;durP1;ratioP1;P2;durP2;ratioP2
64678;SDS011;51094;53.864;27.676;2023-04-04T00:00:24;0.50;;;0.50;;
64678;SDS011;51094;53.864;27.676;2023-04-04T00:02:51;0.50;;;0.50;;
64678;SDS011;51094;53.864;27.676;2023-04-04T00:05:18;0.68;;;0.68;;
64678;SDS011;51094;53.864;27.676;2023-04-04T00:07:45;0.50;;;0.50;;
64678;SDS011;51094;53.864;27.676;2023-04-04T00:10:12;0.60;;;0.60;;
64678;SDS011;51094;53.864;27.676;2023-04-04T00:12:40;0.60;;;0.60;;
64678;SDS011;51094;53.864;27.676;2023-04-04T00:15:08;0.50;;;0.50;;
64678;SDS011;51094;53.864;27.676;2023-04-04T00:17:35;0.60;;;0.60;;
64678;SDS011;51094;53.864;27.676;2023-04-04T00:20:02;0.60;;;0.60;;
64678;SDS011;51094;53.864;27.676;2023-04-04T00:22:29;0.50;;;0.50;;
64678;SDS011;51094;53.864;27.676;2023-04-04T00:24:57;0.50;;;0.50;;
64678;SDS011;51094;53.864;27.676;2023-04-04T00:27:24;0.60;;;0.60;;
64678;SDS011;51094;53.864;27.676;2023-04-04T00:29:51;0.60;;;0.60;;
64678;SDS011;51094;53.864;27.676;2023-04-04T00:32:18;0.50;;;0.50;;
64678;SDS011;51094;53.864;27.676;2023-04-04T00:34:45;0.70;;;0.70;;
64678;SDS011;51094;53.864;27.676;2023-04-04T00:37:12;0.70;;;0.70;;
64678;SDS011;51094;53.864;27.676;2023-04-04T00:39:39;0.65;;;0.65;;
64678;SDS011;51094;53.864;27.676;2023-04-04T00:42:06;0.50;;;0.50;;
64678;SDS011;51094;53.864;27.676;2023-04-04T00:44:34;0.50;;;0.50;;
64678;SDS011;51094;53.864;27.676;2023-04-04T00:47:02;0.68;;;0.68;;
64678;SDS011;51094;53.864;27.676;2023-04-04T00:49:30;0.52;;;0.52;;
64678;SDS011;51094;53.864;27.676;2023-04-04T00:51:56;0.60;;;0.60;;
64678;SDS011;51094;53.864;27.676;2023-04-04T00:54:24;0.57;;;0.57;;
64678;SDS011;51094;53.864;27.676;2023-04-04T00:56:51;0.70;;;0.70;;
64678;SDS011;51094;53.864;27.676;2023-04-04T00:59:21;0.70;;;0.70;;
64678;SDS011;51094;53.864;27.676;2023-04-04T01:01:49;0.70;;;0.70;;
64678;SDS011;51094;53.864;27.676;2023-04-04T01:04:16;0.80;;;0.80;;
64678;SDS011;51094;53.864;27.676;2023-04-04T01:06:43;0.70;;;0.70;;
64678;SDS011;51094;53.864;27.676;2023-04-04T01:09:11;0.70;;;0.70;;
64678;SDS011;51094;53.864;27.676;2023-04-04T01:11:38;0.73;;;0.73;;
64678;SDS011;51094;53.864;27.676;2023-04-04T01:14:06;0.70;;;0.70;;
64678;SDS011;51094;53.864;27.676;2023-04-04T01:16:33;0.65;;;0.65;;
64678;SDS011;51094;53.864;27.676;2023-04-04T01:19:02;0.70;;;0.70;;
64678;SDS011;51094;53.864;27.676;2023-04-04T01:21:34;0.85;;;0.85;;
64678;SDS011;51094;53.864;27.676;2023-04-04T01:24:03;0.70;;;0.70;;
64678;SDS011;51094;53.864;27.676;2023-04-04T01:26:40;0.75;;;0.75;;
64678;SDS011;51094;53.864;27.676;2023-04-04T01:29:07;1.15;;;1.15;;
64678;SDS011;51094;53.864;27.676;2023-04-04T01:31:36;0.70;;;0.70;;
64678;SDS011;51094;53.864;27.676;2023-04-04T01:37:06;0.80;;;0.80;;
64678;SDS011;51094;53.864;27.676;2023-04-04T01:39:59;0.77;;;0.77;;
64678;SDS011;51094;53.864;27.676;2023-04-04T01:42:35;0.80;;;0.80;;
64678;SDS011;51094;53.864;27.676;2023-04-04T01:45:04;0.77;;;0.77;;
64678;SDS011;51094;53.864;27.676;2023-04-04T01:47:37;0.80;;;0.80;;
64678;SDS011;51094;53.864;27.676;2023-04-04T01:50:07;0.80;;;0.80;;
64678;SDS011;51094;53.864;27.676;2023-04-04T01:52:36;0.80;;;0.80;;
64678;SDS011;51094;53.864;27.676;2023-04-04T01:55:04;0.82;;;0.82;;
64678;SDS011;51094;53.864;27.676;2023-04-04T01:57:32;0.82;;;0.82;;
64678;SDS011;51094;53.864;27.676;2023-04-04T01:59:59;0.77;;;0.77;;
64678;SDS011;51094;53.864;27.676;2023-04-04T02:02:26;0.70;;;0.70;;
64678;SDS011;51094;53.864;27.676;2023-04-04T02:04:52;0.70;;;0.70;;
64678;SDS011;51094;53.864;27.676;2023-04-04T02:07:19;0.70;;;0.70;;
64678;SDS011;51094;53.864;27.676;2023-04-04T02:09:46;0.70;;;0.70;;
64678;SDS011;51094;53.864;27.676;2023-04-04T02:12:13;0.75;;;0.75;;
64678;SDS011;51094;53.864;27.676;2023-04-04T02:14:40;0.80;;;0.80;;
64678;SDS011;51094;53.864;27.676;2023-04-04T02:17:07;0.80;;;0.80;;
64678;SDS011;51094;53.864;27.676;2023-04-04T02:19:33;0.90;;;0.90;;
64678;SDS011;51094;53.864;27.676;2023-04-04T02:22:01;0.80;;;0.80;;
64678;SDS011;51094;53.864;27.676;2023-04-04T02:24:28;0.80;;;0.80;;
64678;SDS011;51094;53.864;27.676;2023-04-04T02:26:54;0.80;;;0.80;;
64678;SDS011;51094;53.864;27.676;2023-04-04T02:29:21;0.85;;;0.85;;
64678;SDS011;51094;53.864;27.676;2023-04-04T02:31:49;0.85;;;0.85;;
64678;SDS011;51094;53.864;27.676;2023-04-04T02:34:16;0.90;;;0.90;;
64678;SDS011;51094;53.864;27.676;2023-04-04T02:36:43;0.90;;;0.90;;
64678;SDS011;51094;53.864;27.676;2023-04-04T02:39:11;0.93;;;0.93;;
64678;SDS011;51094;53.864;27.676;2023-04-04T02:41:38;0.90;;;0.90;;
64678;SDS011;51094;53.864;27.676;2023-04-04T02:47:34;0.90;;;0.90;;
64678;SDS011;51094;53.864;27.676;2023-04-04T02:50:01;0.90;;;0.90;;
64678;SDS011;51094;53.864;27.676;2023-04-04T02:52:28;1.00;;;1.00;;
64678;SDS011;51094;53.864;27.676;2023-04-04T02:54:57;0.90;;;0.90;;
64678;SDS011;51094;53.864;27.676;2023-04-04T02:57:31;0.90;;;0.90;;
64678;SDS011;51094;53.864;27.676;2023-04-04T02:59:58;0.80;;;0.80;;
64678;SDS011;51094;53.864;27.676;2023-04-04T03:02:25;1.00;;;1.00;;
64678;SDS011;51094;53.864;27.676;2023-04-04T03:04:51;0.80;;;0.80;;
64678;SDS011;51094;53.864;27.676;2023-04-04T03:07:18;0.85;;;0.85;;
64678;SDS011;51094;53.864;27.676;2023-04-04T03:09:46;1.00;;;1.00;;
64678;SDS011;51094;53.864;27.676;2023-04-04T03:12:13;0.90;;;0.90;;
64678;SDS011;51094;53.864;27.676;2023-04-04T03:14:40;1.10;;;1.10;;
64678;SDS011;51094;53.864;27.676;2023-04-04T03:17:06;1.10;;;1.10;;
64678;SDS011;51094;53.864;27.676;2023-04-04T03:19:36;1.30;;;1.30;;
64678;SDS011;51094;53.864;27.676;2023-04-04T03:22:03;1.10;;;1.10;;
64678;SDS011;51094;53.864;27.676;2023-04-04T03:24:32;0.98;;;0.98;;
64678;SDS011;51094;53.864;27.676;2023-04-04T03:26:59;1.00;;;1.00;;
64678;SDS011;51094;53.864;27.676;2023-04-04T03:29:28;1.10;;;1.10;;
64678;SDS011;51094;53.864;27.676;2023-04-04T03:31:56;1.30;;;1.30;;
64678;SDS011;51094;53.864;27.676;2023-04-04T03:34:23;1.20;;;1.20;;
64678;SDS011;51094;53.864;27.676;2023-04-04T03:36:50;1.25;;;1.25;;
64678;SDS011;51094;53.864;27.676;2023-04-04T03:39:19;1.20;;;1.20;;
64678;SDS011;51094;53.864;27.676;2023-04-04T03:41:46;1.20;;;1.20;;
64678;SDS011;51094;53.864;27.676;2023-04-04T03:44:13;1.30;;;1.30;;
64678;SDS011;51094;53.864;27.676;2023-04-04T03:46:40;1.30;;;1.30;;
64678;SDS011;51094;53.864;27.676;2023-04-04T03:51:37;1.40;;;1.40;;
64678;SDS011;51094;53.864;27.676;2023-04-04T03:54:04;1.30;;;1.30;;
64678;SDS011;51094;53.864;27.676;2023-04-04T03:56:30;1.38;;;1.38;;
64678;SDS011;51094;53.864;27.676;2023-04-04T03:59:02;1.17;;;1.17;;
64678;SDS011;51094;53.864;27.676;2023-04-04T04:01:29;1.40;;;1.40;;
64678;SDS011;51094;53.864;27.676;2023-04-04T04:03:56;1.20;;;1.20;;
64678;SDS011;51094;53.864;27.676;2023-04-04T04:06:23;1.20;;;1.20;;
64678;SDS011;51094;53.864;27.676;2023-04-04T04:08:50;1.70;;;1.70;;
64678;SDS011;51094;53.864;27.676;2023-04-04T04:11:19;1.20;;;1.20;;
64678;SDS011;51094;53.864;27.676;2023-04-04T04:13:45;1.30;;;1.30;;
64678;SDS011;51094;53.864;27.676;2023-04-04T04:16:12;1.30;;;1.30;;
64678;SDS011;51094;53.864;27.676;2023-04-04T04:18:39;1.25;;;1.25;;
64678;SDS011;51094;53.864;27.676;2023-04-04T04:21:10;1.30;;;1.30;;
64678;SDS011;51094;53.864;27.676;2023-04-04T04:23:40;1.60;;;1.60;;
64678;SDS011;51094;53.864;27.676;2023-04-04T04:26:07;1.27;;;1.27;;
64678;SDS011;51094;53.864;27.676;2023-04-04T04:28:34;1.38;;;1.38;;
64678;SDS011;51094;53.864;27.676;2023-04-04T04:31:06;1.40;;;1.40;;
64678;SDS011;51094;53.864;27.676;2023-04-04T04:33:40;1.52;;;1.52;;
64678;SDS011;51094;53.864;27.676;2023-04-04T04:36:08;1.50;;;1.50;;
64678;SDS011;51094;53.864;27.676;2023-04-04T04:38:45;1.50;;;1.50;;
64678;SDS011;51094;53.864;27.676;2023-04-04T04:41:13;1.55;;;1.55;;
64678;SDS011;51094;53.864;27.676;2023-04-04T04:43:44;1.30;;;1.30;;
64678;SDS011;51094;53.864;27.676;2023-04-04T04:46:11;1.40;;;1.40;;
64678;SDS011;51094;53.864;27.676;2023-04-04T04:48:39;1.05;;;1.05;;
64678;SDS011;51094;53.864;27.676;2023-04-04T04:51:08;1.70;;;1.70;;
64678;SDS011;51094;53.864;27.676;2023-04-04T04:53:47;2.20;;;2.20;;
64678;SDS011;51094;53.864;27.676;2023-04-04T04:56:14;1.90;;;1.90;;
64678;SDS011;51094;53.864;27.676;2023-04-04T04:58:44;1.88;;;1.88;;
64678;SDS011;51094;53.864;27.676;2023-04-04T05:01:20;2.10;;;2.10;;
64678;SDS011;51094;53.864;27.676;2023-04-04T05:03:48;4.00;;;3.90;;
64678;SDS011;51094;53.864;27.676;2023-04-04T05:06:24;3.10;;;3.00;;
64678;SDS011;51094;53.864;27.676;2023-04-04T05:08:51;2.47;;;2.47;;
64678;SDS011;51094;53.864;27.676;2023-04-04T05:11:30;2.65;;;2.55;;
64678;SDS011;51094;53.864;27.676;2023-04-04T05:13:57;2.15;;;2.15;;
64678;SDS011;51094;53.864;27.676;2023-04-04T05:16:26;1.95;;;1.95;;
64678;SDS011;51094;53.864;27.676;2023-04-04T05:18:56;1.70;;;1.70;;
64678;SDS011;51094;53.864;27.676;2023-04-04T05:21:23;1.90;;;1.90;;
64678;SDS011;51094;53.864;27.676;2023-04-04T05:23:51;1.65;;;1.65;;
64678;SDS011;51094;53.864;27.676;2023-04-04T05:26:21;1.80;;;1.80;;
64678;SDS011;51094;53.864;27.676;2023-04-04T05:28:50;1.63;;;1.63;;
64678;SDS011;51094;53.864;27.676;2023-04-04T05:31:18;1.58;;;1.58;;
64678;SDS011;51094;53.864;27.676;2023-04-04T05:33:45;2.10;;;2.10;;
64678;SDS011;51094;53.864;27.676;2023-04-04T05:36:20;4.03;;;3.92;;
64678;SDS011;51094;53.864;27.676;2023-04-04T05:38:52;4.40;;;4.30;;
64678;SDS011;51094;53.864;27.676;2023-04-04T05:41:22;3.22;;;3.15;;
64678;SDS011;51094;53.864;27.676;2023-04-04T05:43:52;2.40;;;2.40;;
64678;SDS011;51094;53.864;27.676;2023-04-04T05:46:22;2.20;;;2.20;;
64678;SDS011;51094;53.864;27.676;2023-04-04T05:48:51;3.10;;;3.10;;
64678;SDS011;51094;53.864;27.676;2023-04-04T05:51:18;4.43;;;4.32;;
64678;SDS011;51094;53.864;27.676;2023-04-04T05:53:59;3.90;;;3.80;;
64678;SDS011;51094;53.864;27.676;2023-04-04T05:56:31;2.47;;;2.40;;
64678;SDS011;51094;53.864;27.676;2023-04-04T05:58:59;2.20;;;2.10;;
64678;SDS011;51094;53.864;27.676;2023-04-04T06:01:30;1.80;;;1.80;;
64678;SDS011;51094;53.864;27.676;2023-04-04T06:04:00;1.80;;;1.80;;
64678;SDS011;51094;53.864;27.676;2023-04-04T06:06:27;1.40;;;1.40;;
64678;SDS011;51094;53.864;27.676;2023-04-04T06:08:55;1.50;;;1.50;;
64678;SDS011;51094;53.864;27.676;2023-04-04T06:11:22;1.40;;;1.40;;
64678;SDS011;51094;53.864;27.676;2023-04-04T06:13:50;1.50;;;1.50;;
64678;SDS011;51094;53.864;27.676;2023-04-04T06:16:20;1.50;;;1.50;;
64678;SDS011;51094;53.864;27.676;2023-04-04T06:18:47;1.50;;;1.50;;
64678;SDS011;51094;53.864;27.676;2023-04-04T06:21:14;1.52;;;1.52;;
64678;SDS011;51094;53.864;27.676;2023-04-04T06:23:41;1.75;;;1.75;;
64678;SDS011;51094;53.864;27.676;2023-04-04T06:26:08;1.90;;;1.90;;
64678;SDS011;51094;53.864;27.676;2023-04-04T06:28:37;1.70;;;1.70;;
64678;SDS011;51094;53.864;27.676;2023-04-04T06:31:11;1.50;;;1.50;;
64678;SDS011;51094;53.864;27.676;2023-04-04T06:33:38;2.00;;;2.00;;
64678;SDS011;51094;53.864;27.676;2023-04-04T06:36:05;2.20;;;2.20;;
64678;SDS011;51094;53.864;27.676;2023-04-04T06:38:32;2.42;;;2.42;;
64678;SDS011;51094;53.864;27.676;2023-04-04T06:43:29;2.80;;;2.72;;
64678;SDS011;51094;53.864;27.676;2023-04-04T06:45:57;2.85;;;2.85;;
64678;SDS011;51094;53.864;27.676;2023-04-04T06:48:24;2.67;;;2.67;;
64678;SDS011;51094;53.864;27.676;2023-04-04T06:50:51;2.63;;;2.63;;
64678;SDS011;51094;53.864;27.676;2023-04-04T06:53:18;2.72;;;2.65;;
64678;SDS011;51094;53.864;27.676;2023-04-04T06:55:46;3.33;;;3.28;;
64678;SDS011;51094;53.864;27.676;2023-04-04T06:58:13;5.70;;;5.50;;
64678;SDS011;51094;53.864;27.676;2023-04-04T07:00:40;5.93;;;5.72;;
64678;SDS011;51094;53.864;27.676;2023-04-04T07:03:07;5.95;;;5.75;;
64678;SDS011;51094;53.864;27.676;2023-04-04T07:05:35;5.47;;;5.38;;
64678;SDS011;51094;53.864;27.676;2023-04-04T07:08:04;4.82;;;4.72;;
64678;SDS011;51094;53.864;27.676;2023-04-04T07:10:32;4.88;;;4.78;;
64678;SDS011;51094;53.864;27.676;2023-04-04T07:12:58;5.38;;;5.28;;
64678;SDS011;51094;53.864;27.676;2023-04-04T07:15:26;4.40;;;4.30;;
64678;SDS011;51094;53.864;27.676;2023-04-04T07:17:53;4.30;;;4.20;;
64678;SDS011;51094;53.864;27.676;2023-04-04T07:20:20;4.45;;;4.35;;
64678;SDS011;51094;53.864;27.676;2023-04-04T07:22:47;4.57;;;4.47;;
64678;SDS011;51094;53.864;27.676;2023-04-04T07:25:14;4.20;;;4.10;;
64678;SDS011;51094;53.864;27.676;2023-04-04T07:27:41;4.20;;;4.10;;
64678;SDS011;51094;53.864;27.676;2023-04-04T07:30:08;3.90;;;3.80;;
64678;SDS011;51094;53.864;27.676;2023-04-04T07:32:36;3.50;;;3.40;;
64678;SDS011;51094;53.864;27.676;2023-04-04T07:35:04;2.72;;;2.72;;
64678;SDS011;51094;53.864;27.676;2023-04-04T07:37:32;2.67;;;2.67;;
64678;SDS011;51094;53.864;27.676;2023-04-04T07:40:03;1.98;;;1.98;;
64678;SDS011;51094;53.864;27.676;2023-04-04T07:42:31;2.10;;;2.10;;
64678;SDS011;51094;53.864;27.676;2023-04-04T07:44:58;1.90;;;1.90;;
64678;SDS011;51094;53.864;27.676;2023-04-04T07:47:25;2.00;;;2.00;;
64678;SDS011;51094;53.864;27.676;2023-04-04T07:49:53;1.90;;;1.90;;
64678;SDS011;51094;53.864;27.676;2023-04-04T07:52:19;1.42;;;1.42;;
64678;SDS011;51094;53.864;27.676;2023-04-04T07:54:46;1.40;;;1.40;;
64678;SDS011;51094;53.864;27.676;2023-04-04T07:57:13;1.33;;;1.33;;
64678;SDS011;51094;53.864;27.676;2023-04-04T07:59:40;1.30;;;1.30;;
64678;SDS011;51094;53.864;27.676;2023-04-04T08:02:07;1.20;;;1.20;;
64678;SDS011;51094;53.864;27.676;2023-04-04T08:04:34;1.30;;;1.30;;
64678;SDS011;51094;53.864;27.676;2023-04-04T08:07:00;1.30;;;1.30;;
64678;SDS011;51094;53.864;27.676;2023-04-04T08:09:27;1.40;;;1.40;;
64678;SDS011;51094;53.864;27.676;2023-04-04T08:11:59;1.20;;;1.20;;
64678;SDS011;51094;53.864;27.676;2023-04-04T08:14:27;1.30;;;1.30;;
64678;SDS011;51094;53.864;27.676;2023-04-04T08:16:54;1.27;;;1.27;;
64678;SDS011;51094;53.864;27.676;2023-04-04T08:19:21;1.33;;;1.33;;
64678;SDS011;51094;53.864;27.676;2023-04-04T08:21:48;1.30;;;1.30;;
64678;SDS011;51094;53.864;27.676;2023-04-04T08:24:15;1.40;;;1.40;;
64678;SDS011;51094;53.864;27.676;2023-04-04T08:26:42;1.30;;;1.30;;
64678;SDS011;51094;53.864;27.676;2023-04-04T08:29:14;1.20;;;1.20;;
64678;SDS011;51094;53.864;27.676;2023-04-04T08:31:41;1.20;;;1.20;;
64678;SDS011;51094;53.864;27.676;2023-04-04T08:34:08;1.30;;;1.30;;
64678;SDS011;51094;53.864;27.676;2023-04-04T08:36:35;1.33;;;1.33;;
64678;SDS011;51094;53.864;27.676;2023-04-04T08:39:02;1.83;;;1.83;;
64678;SDS011;51094;53.864;27.676;2023-04-04T08:41:29;1.13;;;1.13;;
64678;SDS011;51094;53.864;27.676;2023-04-04T08:43:58;1.20;;;1.20;;
64678;SDS011;51094;53.864;27.676;2023-04-04T08:46:28;1.40;;;1.40;;
64678;SDS011;51094;53.864;27.676;2023-04-04T08:48:55;1.30;;;1.30;;
64678;SDS011;51094;53.864;27.676;2023-04-04T08:51:24;1.50;;;1.50;;
64678;SDS011;51094;53.864;27.676;2023-04-04T08:53:55;1.60;;;1.60;;
64678;SDS011;51094;53.864;27.676;2023-04-04T08:56:23;1.85;;;1.85;;
64678;SDS011;51094;53.864;27.676;2023-04-04T08:58:49;2.40;;;2.40;;
64678;SDS011;51094;53.864;27.676;2023-04-04T09:01:17;2.60;;;2.60;;
64678;SDS011;51094;53.864;27.676;2023-04-04T09:03:43;3.13;;;3.03;;
64678;SDS011;51094;53.864;27.676;2023-04-04T09:06:11;2.60;;;2.50;;
64678;SDS011;51094;53.864;27.676;2023-04-04T09:08:39;2.67;;;2.60;;
64678;SDS011;51094;53.864;27.676;2023-04-04T09:11:07;2.60;;;2.60;;
64678;SDS011;51094;53.864;27.676;2023-04-04T09:13:34;2.88;;;2.78;;
64678;SDS011;51094;53.864;27.676;2023-04-04T09:16:04;2.60;;;2.60;;
64678;SDS011;51094;53.864;27.676;2023-04-04T09:18:31;2.47;;;2.47;;
64678;SDS011;51094;53.864;27.676;2023-04-04T09:20:58;3.70;;;3.60;;
64678;SDS011;51094;53.864;27.676;2023-04-04T09:23:25;3.67;;;3.58;;
64678;SDS011;51094;53.864;27.676;2023-04-04T09:25:52;3.15;;;3.05;;
64678;SDS011;51094;53.864;27.676;2023-04-04T09:28:23;2.60;;;2.60;;
64678;SDS011;51094;53.864;27.676;2023-04-04T09:30:50;2.42;;;2.42;;
64678;SDS011;51094;53.864;27.676;2023-04-04T09:33:19;2.72;;;2.72;;
64678;SDS011;51094;53.864;27.676;2023-04-04T09:35:53;2.80;;;2.70;;
64678;SDS011;51094;53.864;27.676;2023-04-04T09:38:24;2.80;;;2.80;;
64678;SDS011;51094;53.864;27.676;2023-04-04T09:40:54;2.55;;;2.55;;
64678;SDS011;51094;53.864;27.676;2023-04-04T09:43:23;2.97;;;2.97;;
64678;SDS011;51094;53.864;27.676;2023-04-04T09:45:50;4.18;;;4.07;;
64678;SDS011;51094;53.864;27.676;2023-04-04T09:48:27;4.40;;;4.30;;
64678;SDS011;51094;53.864;27.676;2023-04-04T09:50:57;2.92;;;2.83;;
64678;SDS011;51094;53.864;27.676;2023-04-04T09:53:25;2.28;;;2.28;;
64678;SDS011;51094;53.864;27.676;2023-04-04T09:55:53;2.35;;;2.35;;
64678;SDS011;51094;53.864;27.676;2023-04-04T09:58:24;2.90;;;2.90;;
64678;SDS011;51094;53.864;27.676;2023-04-04T10:00:54;1.95;;;1.95;;
64678;SDS011;51094;53.864;27.676;2023-04-04T10:03:23;2.00;;;2.00;;
64678;SDS011;51094;53.864;27.676;2023-04-04T10:05:59;1.50;;;1.50;;
64678;SDS011;51094;53.864;27.676;2023-04-04T10:08:33;1.70;;;1.70;;
64678;SDS011;51094;53.864;27.676;2023-04-04T10:11:03;1.85;;;1.85;;
64678;SDS011;51094;53.864;27.676;2023-04-04T10:13:34;1.73;;;1.73;;
64678;SDS011;51094;53.864;27.676;2023-04-04T10:16:02;1.40;;;1.40;;
64678;SDS011;51094;53.864;27.676;2023-04-04T10:18:30;1.30;;;1.30;;
64678;SDS011;51094;53.864;27.676;2023-04-04T10:21:00;1.30;;;1.30;;
64678;SDS011;51094;53.864;27.676;2023-04-04T10:23:41;1.17;;;1.17;;
64678;SDS011;51094;53.864;27.676;2023-04-04T10:26:11;1.60;;;1.60;;
64678;SDS011;51094;53.864;27.676;2023-04-04T10:28:40;1.70;;;1.70;;
64678;SDS011;51094;53.864;27.676;2023-04-04T10:31:08;1.20;;;1.20;;
64678;SDS011;51094;53.864;27.676;2023-04-04T10:36:21;1.40;;;1.40;;
64678;SDS011;51094;53.864;27.676;2023-04-04T10:39:24;1.30;;;1.30;;
64678;SDS011;51094;53.864;27.676;2023-04-04T10:41:52;0.90;;;0.90;;
64678;SDS011;51094;53.864;27.676;2023-04-04T10:44:22;1.05;;;1.05;;
64678;SDS011;51094;53.864;27.676;2023-04-04T10:46:55;1.20;;;1.20;;
64678;SDS011;51094;53.864;27.676;2023-04-04T10:49:25;1.30;;;1.30;;
64678;SDS011;51094;53.864;27.676;2023-04-04T10:51:53;1.30;;;1.30;;
64678;SDS011;51094;53.864;27.676;2023-04-04T10:54:24;1.25;;;1.25;;
64678;SDS011;51094;53.864;27.676;2023-04-04T10:56:53;1.30;;;1.30;;
64678;SDS011;51094;53.864;27.676;2023-04-04T10:59:21;1.30;;;1.30;;
64678;SDS011;51094;53.864;27.676;2023-04-04T11:01:57;1.25;;;1.25;;
64678;SDS011;51094;53.864;27.676;2023-04-04T11:04:31;1.20;;;1.20;;
64678;SDS011;51094;53.864;27.676;2023-04-04T11:09:49;1.00;;;1.00;;
64678;SDS011;51094;53.864;27.676;2023-04-04T11:12:30;0.80;;;0.80;;
64678;SDS011;51094;53.864;27.676;2023-04-04T11:15:08;0.90;;;0.90;;
64678;SDS011;51094;53.864;27.676;2023-04-04T11:20:15;1.20;;;1.20;;
64678;SDS011;51094;53.864;27.676;2023-04-04T11:22:43;1.30;;;1.30;;
64678;SDS011;51094;53.864;27.676;2023-04-04T11:27:53;1.50;;;1.50;;
64678;SDS011;51094;53.864;27.676;2023-04-04T11:30:21;1.20;;;1.20;;
64678;SDS011;51094;53.864;27.676;2023-04-04T11:32:49;1.40;;;1.40;;
64678;SDS011;51094;53.864;27.676;2023-04-04T11:35:31;1.40;;;1.40;;
64678;SDS011;51094;53.864;27.676;2023-04-04T11:37:59;1.50;;;1.50;;
64678;SDS011;51094;53.864;27.676;2023-04-04T11:40:37;1.50;;;1.50;;
64678;SDS011;51094;53.864;27.676;2023-04-04T11:43:11;1.27;;;1.27;;
64678;SDS011;51094;53.864;27.676;2023-04-04T11:45:44;1.23;;;1.23;;
64678;SDS011;51094;53.864;27.676;2023-04-04T11:48:13;2.17;;;2.17;;
64678;SDS011;51094;53.864;27.676;2023-04-04T11:50:44;2.15;;;2.15;;
64678;SDS011;51094;53.864;27.676;2023-04-04T11:53:14;2.03;;;2.03;;
64678;SDS011;51094;53.864;27.676;2023-04-04T11:55:43;1.90;;;1.90;;
64678;SDS011;51094;53.864;27.676;2023-04-04T11:58:14;1.90;;;1.90;;
64678;SDS011;51094;53.864;27.676;2023-04-04T12:00:43;1.40;;;1.40;;
64678;SDS011;51094;53.864;27.676;2023-04-04T12:03:11;1.70;;;1.70;;
64678;SDS011;51094;53.864;27.676;2023-04-04T12:05:42;1.45;;;1.45;;
64678;SDS011;51094;53.864;27.676;2023-04-04T12:08:10;1.25;;;1.25;;
64678;SDS011;51094;53.864;27.676;2023-04-04T12:10:38;1.50;;;1.50;;
64678;SDS011;51094;53.864;27.676;2023-04-04T12:13:09;1.52;;;1.52;;
64678;SDS011;51094;53.864;27.676;2023-04-04T12:15:36;1.40;;;1.40;;
64678;SDS011;51094;53.864;27.676;2023-04-04T12:18:07;1.40;;;1.40;;
64678;SDS011;51094;53.864;27.676;2023-04-04T12:20:37;1.67;;;1.67;;
64678;SDS011;51094;53.864;27.676;2023-04-04T12:23:05;1.30;;;1.30;;
64678;SDS011;51094;53.864;27.676;2023-04-04T12:25:31;1.23;;;1.23;;
64678;SDS011;51094;53.864;27.676;2023-04-04T12:28:00;1.70;;;1.70;;
64678;SDS011;51094;53.864;27.676;2023-04-04T12:32:57;1.20;;;1.20;;
64678;SDS011;51094;53.864;27.676;2023-04-04T12:35:24;1.13;;;1.13;;
64678;SDS011;51094;53.864;27.676;2023-04-04T12:37:58;1.20;;;1.20;;
64678;SDS011;51094;53.864;27.676;2023-04-04T12:40:28;1.40;;;1.40;;
64678;SDS011;51094;53.864;27.676;2023-04-04T12:42:58;1.60;;;1.60;;
64678;SDS011;51094;53.864;27.676;2023-04-04T12:45:26;1.50;;;1.50;;
64678;SDS011;51094;53.864;27.676;2023-04-04T12:47:54;1.48;;;1.48;;
64678;SDS011;51094;53.864;27.676;2023-04-04T12:50:22;1.10;;;1.10;;
64678;SDS011;51094;53.864;27.676;2023-04-04T12:52:50;1.50;;;1.50;;
64678;SDS011;51094;53.864;27.676;2023-04-04T12:55:25;1.30;;;1.30;;
64678;SDS011;51094;53.864;27.676;2023-04-04T12:57:58;1.38;;;1.38;;
64678;SDS011;51094;53.864;27.676;2023-04-04T13:00:26;1.20;;;1.20;;
64678;SDS011;51094;53.864;27.676;2023-04-04T13:02:53;1.20;;;1.20;;
64678;SDS011;51094;53.864;27.676;2023-04-04T13:05:20;1.58;;;1.58;;
64678;SDS011;51094;53.864;27.676;2023-04-04T13:10:30;1.20;;;1.20;;
64678;SDS011;51094;53.864;27.676;2023-04-04T13:12:58;1.40;;;1.40;;
64678;SDS011;51094;53.864;27.676;2023-04-04T13:18:19;1.30;;;1.30;;
64678;SDS011;51094;53.864;27.676;2023-04-04T13:20:48;1.23;;;1.23;;
64678;SDS011;51094;53.864;27.676;2023-04-04T13:23:15;1.27;;;1.27;;
64678;SDS011;51094;53.864;27.676;2023-04-04T13:25:43;1.30;;;1.30;;
64678;SDS011;51094;53.864;27.676;2023-04-04T13:28:09;1.10;;;1.10;;
64678;SDS011;51094;53.864;27.676;2023-04-04T13:30:37;1.30;;;1.30;;
64678;SDS011;51094;53.864;27.676;2023-04-04T13:33:04;1.30;;;1.30;;
64678;SDS011;51094;53.864;27.676;2023-04-04T13:35:32;1.10;;;1.10;;
64678;SDS011;51094;53.864;27.676;2023-04-04T13:37:59;1.30;;;1.30;;
64678;SDS011;51094;53.864;27.676;2023-04-04T13:40:25;1.25;;;1.25;;
64678;SDS011;51094;53.864;27.676;2023-04-04T13:42:53;1.20;;;1.20;;
64678;SDS011;51094;53.864;27.676;2023-04-04T13:45:19;1.20;;;1.20;;
64678;SDS011;51094;53.864;27.676;2023-04-04T13:47:46;1.42;;;1.42;;
64678;SDS011;51094;53.864;27.676;2023-04-04T13:50:13;1.40;;;1.40;;
64678;SDS011;51094;53.864;27.676;2023-04-04T13:52:40;1.30;;;1.30;;
64678;SDS011;51094;53.864;27.676;2023-04-04T13:55:07;1.50;;;1.50;;
64678;SDS011;51094;53.864;27.676;2023-04-04T13:57:35;1.40;;;1.40;;
64678;SDS011;51094;53.864;27.676;2023-04-04T14:00:02;1.45;;;1.45;;
64678;SDS011;51094;53.864;27.676;2023-04-04T14:02:34;1.20;;;1.20;;
64678;SDS011;51094;53.864;27.676;2023-04-04T14:05:01;1.40;;;1.40;;
64678;SDS011;51094;53.864;27.676;2023-04-04T14:07:28;1.50;;;1.50;;
64678;SDS011;51094;53.864;27.676;2023-04-04T14:09:55;1.30;;;1.30;;
64678;SDS011;51094;53.864;27.676;2023-04-04T14:12:22;1.50;;;1.50;;
64678;SDS011;51094;53.864;27.676;2023-04-04T14:14:48;1.60;;;1.60;;
64678;SDS011;51094;53.864;27.676;2023-04-04T14:17:15;1.50;;;1.50;;
64678;SDS011;51094;53.864;27.676;2023-04-04T14:19:42;1.50;;;1.50;;
64678;SDS011;51094;53.864;27.676;2023-04-04T14:22:09;1.70;;;1.70;;
64678;SDS011;51094;53.864;27.676;2023-04-04T14:24:36;1.60;;;1.60;;
64678;SDS011;51094;53.864;27.676;2023-04-04T14:27:02;1.83;;;1.83;;
64678;SDS011;51094;53.864;27.676;2023-04-04T14:29:29;2.10;;;2.10;;
64678;SDS011;51094;53.864;27.676;2023-04-04T14:31:56;1.90;;;1.90;;
64678;SDS011;51094;53.864;27.676;2023-04-04T14:34:23;1.70;;;1.70;;
64678;SDS011;51094;53.864;27.676;2023-04-04T14:36:53;1.50;;;1.50;;
64678;SDS011;51094;53.864;27.676;2023-04-04T14:39:20;1.40;;;1.40;;
64678;SDS011;51094;53.864;27.676;2023-04-04T14:41:47;1.42;;;1.42;;
64678;SDS011;51094;53.864;27.676;2023-04-04T14:44:14;1.20;;;1.20;;
64678;SDS011;51094;53.864;27.676;2023-04-04T14:46:41;1.30;;;1.30;;
64678;SDS011;51094;53.864;27.676;2023-04-04T14:49:08;1.48;;;1.48;;
64678;SDS011;51094;53.864;27.676;2023-04-04T14:51:35;1.52;;;1.52;;
64678;SDS011;51094;53.864;27.676;2023-04-04T14:54:02;2.03;;;2.03;;
64678;SDS011;51094;53.864;27.676;2023-04-04T14:56:29;1.50;;;1.50;;
64678;SDS011;51094;53.864;27.676;2023-04-04T14:58:56;1.58;;;1.58;;
64678;SDS011;51094;53.864;27.676;2023-04-04T15:01:25;1.70;;;1.70;;
64678;SDS011;51094;53.864;27.676;2023-04-04T15:03:52;1.40;;;1.40;;
64678;SDS011;51094;53.864;27.676;2023-04-04T15:06:21;1.90;;;1.90;;
64678;SDS011;51094;53.864;27.676;2023-04-04T15:08:47;1.90;;;1.90;;
64678;SDS011;51094;53.864;27.676;2023-04-04T15:11:15;1.95;;;1.95;;